TAF EHMA
METAR EHMA
EHMA 270855Z AUTO VRB09KT 9000 FEW005 SCT007 BKN010 05/04 Q0986=
EHMA 270825Z AUTO 12006KT 360V150 7000 -DZ FEW002 SCT006 BKN009 05/04 Q0985=
EHMA 270755Z AUTO 10008KT 7000 DZ FEW002 SCT005 BKN007 05/04 Q0985=
EHMA 270725Z AUTO 13005KT 080V170 7000 DZ FEW003 SCT006 BKN007 05/04 Q0984=
EHMA 270655Z AUTO 12005KT 7000 -RADZ FEW003 SCT006 BKN011 05/04 Q0984 RERA REDZ=
WC EHMA
WS EHMA
WV EHMA